Time;durP1;ratioP1;P1;durP2;ratioP2;P2;SDS_P1;SDS_P2;PMS_P1;PMS_P2;Temp;Humidity;BMP_temperature;BMP_pressure;BME280_temperature;BME280_humidity;BME280_pressure;Samples;Min_cycle;Max_cycle;Signal;HPM_P1;HPM_P2
2021/07/03 00:01:08;;;;;;;19.10;17.80;;;;;;;14.80;86.69;100753.66;5064020;28;20266;-73
2021/07/03 00:03:34;;;;;;;20.23;18.47;;;;;;;14.80;87.37;100730.84;5064215;28;20214;-73
2021/07/03 00:06:01;;;;;;;19.43;17.37;;;;;;;14.79;87.22;100730.94;5063790;28;20218;-72
2021/07/03 00:08:28;;;;;;;18.37;17.10;;;;;;;14.78;86.90;100745.81;5064228;28;20214;-73
2021/07/03 00:10:55;;;;;;;18.67;16.93;;;;;;;14.76;87.21;100750.25;5063725;28;20292;-72
2021/07/03 00:13:22;;;;;;;18.13;16.60;;;;;;;14.76;87.43;100731.88;5063956;28;20213;-73
2021/07/03 00:15:48;;;;;;;18.70;17.20;;;;;;;14.72;87.25;100732.88;5063476;28;20319;-72
2021/07/03 00:18:15;;;;;;;18.90;17.37;;;;;;;14.72;86.98;100743.38;5064027;28;20263;-72
2021/07/03 00:20:41;;;;;;;18.30;17.00;;;;;;;14.74;87.53;100731.06;5063842;28;20211;-73
2021/07/03 00:23:08;;;;;;;17.77;16.57;;;;;;;14.69;87.32;100738.25;5063426;28;20211;-73
2021/07/03 00:25:36;;;;;;;18.53;17.20;;;;;;;14.65;87.67;100729.59;5063472;28;20208;-73
2021/07/03 00:28:03;;;;;;;17.70;16.50;;;;;;;14.67;87.81;100716.41;5063636;28;20225;-72
2021/07/03 00:30:29;;;;;;;19.83;18.13;;;;;;;14.66;87.39;100733.06;5064058;28;20209;-72
2021/07/03 00:32:55;;;;;;;18.70;17.20;;;;;;;14.66;87.16;100748.84;5063277;28;20206;-72
2021/07/03 00:35:22;;;;;;;18.27;16.97;;;;;;;14.65;87.11;100747.97;5063346;28;20298;-73
2021/07/03 00:37:49;;;;;;;18.50;17.20;;;;;;;14.67;87.30;100755.81;5063668;28;20242;-74
2021/07/03 00:40:16;;;;;;;19.93;18.13;;;;;;;14.65;87.79;100726.09;5063240;28;20304;-73
2021/07/03 00:42:44;;;;;;;19.07;17.60;;;;;;;14.65;87.63;100729.59;5062587;28;20207;-72
2021/07/03 00:45:11;;;;;;;19.07;17.47;;;;;;;14.62;87.61;100726.19;5063668;28;20202;-73
2021/07/03 00:47:38;;;;;;;17.57;16.07;;;;;;;14.58;87.58;100730.66;5063339;28;20222;-72
2021/07/03 00:50:09;;;;;;;17.67;16.37;;;;;;;14.59;87.40;100731.53;5063296;28;20205;-73
2021/07/03 00:52:36;;;;;;;17.57;16.37;;;;;;;14.54;87.25;100738.69;5062610;28;20239;-73
2021/07/03 00:55:02;;;;;;;17.20;15.70;;;;;;;14.50;87.06;100741.38;5062880;28;20229;-72
2021/07/03 00:57:31;;;;;;;17.47;16.20;;;;;;;14.53;87.42;100748.34;5063255;28;20263;-72
2021/07/03 00:59:59;;;;;;;17.67;16.33;;;;;;;14.53;87.04;100763.22;5063239;28;20205;-72
2021/07/03 01:02:26;;;;;;;17.43;16.03;;;;;;;14.42;86.87;100767.03;5063036;28;20207;-72
2021/07/03 01:04:52;;;;;;;17.67;16.30;;;;;;;14.41;87.05;100767.06;5062871;28;20205;-72
2021/07/03 01:07:19;;;;;;;18.60;17.10;;;;;;;14.39;86.95;100769.75;5062656;28;20258;-72
2021/07/03 01:09:45;;;;;;;17.73;15.97;;;;;;;14.35;87.23;100762.88;5062688;28;20213;-72
2021/07/03 01:12:12;;;;;;;17.37;16.07;;;;;;;14.35;86.66;100777.75;5062404;28;20728;-72
2021/07/03 01:14:42;;;;;;;17.13;15.73;;;;;;;14.32;86.24;100796.25;5062892;28;20577;-72
2021/07/03 01:17:11;;;;;;;17.07;15.63;;;;;;;14.29;86.52;100787.53;5062396;28;20232;-72
2021/07/03 01:19:38;;;;;;;15.40;14.30;;;;;;;14.30;86.05;100806.78;5062850;28;20209;-72
2021/07/03 01:22:07;;;;;;;17.00;15.60;;;;;;;14.27;85.95;100806.84;5062576;28;20208;-72
2021/07/03 01:24:34;;;;;;;16.73;15.23;;;;;;;14.21;86.56;100796.53;5062875;28;20259;-72
2021/07/03 01:27:00;;;;;;;16.13;14.93;;;;;;;14.20;86.53;100781.69;5062331;28;20248;-73
2021/07/03 01:29:27;;;;;;;16.03;14.63;;;;;;;14.23;87.08;100755.31;5062932;28;20209;-73
2021/07/03 01:31:55;;;;;;;15.10;14.07;;;;;;;14.24;87.15;100759.69;5062606;28;20211;-73
2021/07/03 01:34:25;;;;;;;16.37;15.10;;;;;;;14.22;87.30;100736.09;5062314;28;20207;-73
2021/07/03 01:36:51;;;;;;;17.20;15.80;;;;;;;14.17;87.81;100713.50;5062169;28;20229;-72
2021/07/03 01:39:19;;;;;;;15.60;14.40;;;;;;;14.18;87.18;100733.63;5062456;28;20214;-72
2021/07/03 01:41:45;;;;;;;14.70;13.70;;;;;;;14.16;86.79;100754.66;5062723;28;20201;-73
2021/07/03 01:44:12;;;;;;;16.33;14.83;;;;;;;14.10;86.44;100760.94;5062507;28;20248;-73
2021/07/03 01:46:39;;;;;;;15.87;14.67;;;;;;;14.11;86.34;100780.16;5062697;28;20770;-72
2021/07/03 01:49:07;;;;;;;16.60;15.37;;;;;;;14.06;86.96;100763.69;5062917;28;20255;-73
2021/07/03 01:51:34;;;;;;;16.03;14.83;;;;;;;14.12;86.78;100760.91;5063053;28;20202;-73
2021/07/03 01:54:01;;;;;;;16.17;14.87;;;;;;;14.10;86.89;100753.06;5062632;28;20250;-73
2021/07/03 01:56:28;;;;;;;15.97;14.87;;;;;;;14.03;87.35;100738.41;5062495;28;20320;-73
2021/07/03 01:58:55;;;;;;;15.63;14.23;;;;;;;14.00;87.04;100727.13;5062212;28;20217;-73
2021/07/03 02:01:21;;;;;;;17.33;16.00;;;;;;;14.00;87.82;100703.50;5062939;28;20209;-72
2021/07/03 02:03:48;;;;;;;16.57;15.30;;;;;;;14.01;88.92;100671.09;5061892;28;20278;-73
2021/07/03 02:06:14;;;;;;;17.20;15.77;;;;;;;14.04;89.07;100642.16;5062405;28;20278;-73
2021/07/03 02:08:40;;;;;;;17.33;16.07;;;;;;;14.09;89.49;100625.34;5062200;28;20210;-73
2021/07/03 02:11:07;;;;;;;17.33;15.93;;;;;;;14.15;90.55;100594.56;5062547;28;20259;-73
2021/07/03 02:13:34;;;;;;;18.50;16.93;;;;;;;13.95;89.80;100619.63;5062215;28;20205;-73
2021/07/03 02:16:01;;;;;;;21.10;19.07;;;;;;;12.75;90.30;100636.00;5062502;28;20278;-73
2021/07/03 02:18:28;;;;;;;24.47;22.27;;;;;;;12.42;92.07;100548.66;5062030;28;20260;-73
2021/07/03 02:20:54;;;;;;;23.30;20.83;;;;;;;12.29;93.46;100501.00;5063514;28;20212;-73
2021/07/03 02:23:20;;;;;;;24.00;21.17;;;;;;;12.32;93.82;100487.81;5066376;28;20733;-73
2021/07/03 02:25:47;;;;;;;24.83;22.60;;;;;;;12.28;94.36;100476.56;5066314;28;20212;-72
2021/07/03 02:28:13;;;;;;;23.47;21.70;;;;;;;12.34;94.56;100466.84;5066565;28;21420;-73
2021/07/03 02:30:41;;;;;;;23.00;20.90;;;;;;;12.48;94.64;100468.19;5066341;28;20201;-73
2021/07/03 02:33:08;;;;;;;23.10;20.93;;;;;;;12.72;94.63;100460.59;5065708;28;21408;-73
2021/07/03 02:35:35;;;;;;;20.43;18.37;;;;;;;12.87;94.82;100478.50;5065995;28;20724;-73
2021/07/03 02:38:02;;;;;;;20.20;18.10;;;;;;;12.99;93.20;100534.94;5066376;28;20228;-73
2021/07/03 02:40:28;;;;;;;18.37;16.73;;;;;;;13.08;92.16;100573.13;5066495;28;20255;-73
2021/07/03 02:42:54;;;;;;;18.17;16.73;;;;;;;13.15;91.35;100615.78;5065777;28;20213;-72
2021/07/03 02:45:23;;;;;;;20.27;18.37;;;;;;;13.20;91.17;100648.84;5066126;28;20246;-73
2021/07/03 02:47:51;;;;;;;18.97;17.40;;;;;;;13.25;90.49;100662.66;5066286;28;20314;-73
2021/07/03 02:50:19;;;;;;;18.43;16.93;;;;;;;13.33;89.98;100669.50;5066351;28;20211;-73
2021/07/03 02:52:45;;;;;;;18.33;16.97;;;;;;;13.32;89.52;100692.25;5065737;28;20283;-73
2021/07/03 02:55:13;;;;;;;17.93;16.37;;;;;;;13.38;89.94;100684.22;5065706;28;20206;-73
2021/07/03 02:57:40;;;;;;;17.63;16.13;;;;;;;13.36;89.61;100699.13;5065549;28;20232;-74
2021/07/03 03:00:08;;;;;;;17.47;15.77;;;;;;;13.39;89.90;100692.94;5065860;28;20267;-73
2021/07/03 03:02:36;;;;;;;16.57;15.17;;;;;;;13.39;89.27;100706.91;5065653;28;20256;-73
2021/07/03 03:05:04;;;;;;;16.47;15.03;;;;;;;13.44;89.40;100710.28;5065830;28;20198;-73
2021/07/03 03:07:30;;;;;;;17.43;16.10;;;;;;;13.45;89.94;100701.50;5065640;28;20274;-73
2021/07/03 03:09:57;;;;;;;15.60;14.40;;;;;;;13.50;89.50;100707.50;5065741;28;20252;-73
2021/07/03 03:12:23;;;;;;;16.27;15.07;;;;;;;13.55;89.92;100677.66;5065149;28;20682;-73
2021/07/03 03:14:49;;;;;;;17.27;15.87;;;;;;;13.57;90.86;100649.63;5065351;28;21077;-73
2021/07/03 03:17:16;;;;;;;17.60;16.40;;;;;;;13.49;90.09;100679.53;5065586;28;20312;-74
2021/07/03 03:19:42;;;;;;;19.47;17.73;;;;;;;13.05;90.31;100688.53;5065507;28;20209;-73
2021/07/03 03:22:10;;;;;;;19.80;18.23;;;;;;;12.57;91.19;100663.50;5065221;28;20209;-72
2021/07/03 03:24:36;;;;;;;20.40;18.70;;;;;;;12.46;92.09;100624.47;5065330;28;20255;-73
2021/07/03 03:27:03;;;;;;;20.87;18.83;;;;;;;12.62;92.75;100601.38;5065560;28;20219;-73
2021/07/03 03:29:30;;;;;;;20.27;18.67;;;;;;;12.77;92.59;100592.28;5066222;28;20197;-73
2021/07/03 03:31:56;;;;;;;20.83;18.10;;;;;;;12.94;93.14;100580.50;5065586;28;20237;-73
2021/07/03 03:34:22;;;;;;;18.40;16.77;;;;;;;13.05;92.30;100604.69;5065829;28;20683;-74
2021/07/03 03:36:49;;;;;;;19.47;17.53;;;;;;;13.16;92.24;100609.63;5065028;28;20300;-73
2021/07/03 03:39:16;;;;;;;17.37;15.60;;;;;;;13.22;91.89;100631.31;5065391;28;20209;-73
2021/07/03 03:41:43;;;;;;;16.37;14.90;;;;;;;13.27;92.03;100634.66;5064844;28;20205;-74
2021/07/03 03:44:09;;;;;;;18.40;15.63;;;;;;;13.33;91.98;100631.03;5064755;28;20750;-73
2021/07/03 03:46:36;;;;;;;17.30;15.67;;;;;;;13.36;92.65;100603.88;5065101;28;20222;-72
2021/07/03 03:49:02;;;;;;;16.23;14.80;;;;;;;13.40;93.42;100584.53;5065323;28;20258;-73
2021/07/03 03:51:29;;;;;;;15.17;14.00;;;;;;;13.48;93.08;100586.03;5064911;28;20206;-73
2021/07/03 03:53:55;;;;;;;15.40;14.00;;;;;;;13.54;92.81;100600.75;5064723;28;20279;-73
2021/07/03 03:56:23;;;;;;;14.23;13.13;;;;;;;13.58;92.48;100612.00;5064537;28;20286;-73
2021/07/03 03:58:49;;;;;;;13.80;12.80;;;;;;;13.66;92.37;100618.75;5064575;28;20625;-73
2021/07/03 04:01:15;;;;;;;14.43;13.33;;;;;;;13.72;92.50;100619.50;5064636;28;20259;-72
2021/07/03 04:03:42;;;;;;;14.40;13.33;;;;;;;13.76;92.17;100616.72;5064528;28;20268;-74
2021/07/03 04:06:08;;;;;;;14.43;13.20;;;;;;;13.83;92.59;100607.75;5064605;28;20247;-74
2021/07/03 04:08:36;;;;;;;14.50;13.40;;;;;;;13.89;91.93;100625.06;5064418;28;20256;-74
2021/07/03 04:11:03;;;;;;;14.13;12.93;;;;;;;13.96;92.42;100621.38;5064642;28;20630;-74
2021/07/03 04:13:30;;;;;;;15.10;13.63;;;;;;;14.02;92.28;100620.34;5064419;28;20213;-74
2021/07/03 04:15:57;;;;;;;14.30;13.10;;;;;;;14.06;92.78;100611.47;5064266;28;20266;-74
2021/07/03 04:18:23;;;;;;;16.00;14.67;;;;;;;14.04;92.46;100632.50;5064664;28;20213;-74
2021/07/03 04:20:50;;;;;;;18.97;13.83;;;;;;;14.12;92.36;100616.53;5064525;28;20214;-74
2021/07/03 04:23:16;;;;;;;13.30;12.10;;;;;;;14.16;92.20;100638.28;5063771;28;20275;-74
2021/07/03 04:25:42;;;;;;;14.63;13.27;;;;;;;14.23;92.44;100632.81;5064441;28;20269;-74
2021/07/03 04:28:09;;;;;;;15.13;13.80;;;;;;;14.27;92.14;100644.94;5064178;28;20282;-74
2021/07/03 04:30:36;;;;;;;15.57;14.17;;;;;;;14.27;92.32;100655.44;5064178;28;20206;-74
2021/07/03 04:33:03;;;;;;;14.73;13.60;;;;;;;14.34;92.33;100634.22;5063862;28;20276;-74
2021/07/03 04:35:29;;;;;;;15.17;13.97;;;;;;;14.38;92.06;100649.84;5064252;28;20253;-73
2021/07/03 04:37:56;;;;;;;15.00;13.67;;;;;;;14.40;92.36;100641.91;5063574;28;20234;-73
2021/07/03 04:40:22;;;;;;;15.90;14.33;;;;;;;14.37;92.04;100645.50;5063934;28;20213;-74
2021/07/03 04:42:48;;;;;;;17.03;15.40;;;;;;;14.29;92.09;100658.88;5063853;28;20206;-74
2021/07/03 04:45:15;;;;;;;16.03;14.90;;;;;;;14.33;91.46;100664.00;5063348;28;20271;-74
2021/07/03 04:47:43;;;;;;;17.30;15.70;;;;;;;14.36;91.49;100666.56;5063553;28;20921;-74
2021/07/03 04:50:10;;;;;;;17.23;15.63;;;;;;;14.31;90.72;100721.84;5063784;28;20263;-74
2021/07/03 04:52:37;;;;;;;17.50;16.13;;;;;;;14.38;90.49;100738.28;5063065;28;20214;-73
2021/07/03 04:55:05;;;;;;;16.60;15.20;;;;;;;14.47;90.95;100701.25;5063798;28;20206;-74
2021/07/03 04:57:31;;;;;;;16.37;14.93;;;;;;;14.56;91.02;100703.59;5063375;28;20284;-73
2021/07/03 04:59:57;;;;;;;16.97;15.50;;;;;;;14.58;91.05;100706.19;5063727;28;20206;-75
2021/07/03 05:02:24;;;;;;;17.03;15.33;;;;;;;14.58;90.38;100714.06;5063282;28;20211;-73
2021/07/03 05:04:52;;;;;;;17.87;16.23;;;;;;;14.54;90.53;100713.25;5062929;28;20280;-74
2021/07/03 05:07:18;;;;;;;17.23;15.67;;;;;;;14.54;89.89;100747.41;5063466;28;20214;-74
2021/07/03 05:09:45;;;;;;;18.07;16.23;;;;;;;14.58;89.42;100769.22;5063588;28;20207;-74
2021/07/03 05:12:11;;;;;;;17.87;16.07;;;;;;;14.67;89.72;100764.56;5062999;28;20586;-74
2021/07/03 05:14:37;;;;;;;18.10;16.77;;;;;;;14.59;89.77;100765.69;5063202;28;20252;-74
2021/07/03 05:17:04;;;;;;;17.47;15.90;;;;;;;14.74;90.01;100733.69;5063076;28;20230;-74
2021/07/03 05:19:32;;;;;;;19.17;14.47;;;;;;;14.78;90.53;100714.28;5062987;28;20249;-73
2021/07/03 05:21:59;;;;;;;16.03;14.63;;;;;;;14.82;90.20;100729.03;5063256;28;20210;-74
2021/07/03 05:24:26;;;;;;;17.57;14.93;;;;;;;14.85;90.23;100717.59;5063282;28;20211;-74
2021/07/03 05:26:52;;;;;;;16.37;14.97;;;;;;;14.92;89.92;100726.97;5063007;28;20254;-73
2021/07/03 05:29:19;;;;;;;15.63;14.27;;;;;;;15.04;90.59;100705.56;5063054;28;20217;-73
2021/07/03 05:31:45;;;;;;;17.57;16.07;;;;;;;15.02;89.69;100749.41;5063158;28;20763;-73
2021/07/03 05:34:11;;;;;;;16.73;15.30;;;;;;;15.02;88.96;100775.72;5062417;28;20202;-73
2021/07/03 05:36:38;;;;;;;17.57;15.93;;;;;;;15.12;89.13;100772.81;5062892;28;20238;-74
2021/07/03 05:39:06;;;;;;;17.70;16.03;;;;;;;15.17;89.43;100755.97;5063191;28;20579;-73
2021/07/03 05:41:34;;;;;;;17.87;16.47;;;;;;;15.26;89.56;100752.16;5062663;28;21242;-73
2021/07/03 05:44:01;;;;;;;17.63;16.20;;;;;;;15.22;89.01;100779.47;5062443;28;20290;-73
2021/07/03 05:46:27;;;;;;;20.20;16.87;;;;;;;15.18;89.22;100762.97;5062678;28;20237;-73
2021/07/03 05:48:54;;;;;;;18.20;16.70;;;;;;;15.25;90.28;100725.00;5062749;28;20207;-74
2021/07/03 05:51:21;;;;;;;19.20;17.57;;;;;;;15.31;89.66;100729.22;5062825;28;20255;-73
2021/07/03 05:53:48;;;;;;;19.47;17.83;;;;;;;15.38;89.40;100750.88;5062423;28;20638;-73
2021/07/03 05:56:16;;;;;;;18.37;16.87;;;;;;;15.44;89.53;100743.66;5061865;28;20234;-73
2021/07/03 05:58:42;;;;;;;18.40;16.70;;;;;;;15.46;89.49;100754.13;5062433;28;20210;-73
2021/07/03 06:01:08;;;;;;;17.97;16.47;;;;;;;15.52;89.49;100740.78;5062567;28;20263;-72
2021/07/03 06:03:35;;;;;;;18.20;16.70;;;;;;;15.58;89.55;100742.31;5062142;28;20924;-73
2021/07/03 06:06:01;;;;;;;18.63;17.23;;;;;;;15.65;89.89;100728.88;5062657;28;20344;-72
2021/07/03 06:08:27;;;;;;;21.03;16.60;;;;;;;15.65;90.00;100701.72;5062474;28;20684;-73
2021/07/03 06:10:54;;;;;;;17.43;16.03;;;;;;;15.63;88.75;100764.94;5062489;28;21256;-73
2021/07/03 06:13:22;;;;;;;18.23;16.70;;;;;;;15.72;89.58;100739.19;5061900;28;20217;-73
2021/07/03 06:15:48;;;;;;;17.93;16.53;;;;;;;15.70;89.63;100728.75;5062229;28;20341;-73
2021/07/03 06:18:14;;;;;;;17.70;16.20;;;;;;;15.73;89.65;100725.16;5062223;28;21315;-73
2021/07/03 06:20:41;;;;;;;17.60;16.10;;;;;;;15.83;90.41;100697.59;5062739;28;20210;-73
2021/07/03 06:23:08;;;;;;;17.43;15.77;;;;;;;15.84;89.00;100754.59;5061898;28;20690;-73
2021/07/03 06:25:34;;;;;;;17.63;16.13;;;;;;;15.89;88.03;100784.25;5062472;28;20208;-72
2021/07/03 06:28:01;;;;;;;16.83;15.53;;;;;;;15.97;88.18;100784.81;5062288;28;21059;-73
2021/07/03 06:30:28;;;;;;;16.20;14.80;;;;;;;15.96;87.73;100806.81;5062208;28;20280;-73
2021/07/03 06:32:55;;;;;;;17.53;15.73;;;;;;;16.02;87.91;100805.75;5061878;28;20294;-73
2021/07/03 06:35:21;;;;;;;16.10;14.70;;;;;;;16.11;88.38;100773.78;5062661;28;20201;-73
2021/07/03 06:37:48;;;;;;;17.17;15.70;;;;;;;16.15;87.96;100775.41;5061933;28;20553;-73
2021/07/03 06:40:14;;;;;;;15.43;14.13;;;;;;;16.17;86.09;100862.25;5062317;28;20218;-73
2021/07/03 06:42:40;;;;;;;17.47;15.60;;;;;;;16.22;85.34;100892.81;5061838;28;20204;-73
2021/07/03 06:45:08;;;;;;;16.70;15.40;;;;;;;16.27;85.63;100901.41;5061984;28;20208;-75
2021/07/03 06:47:36;;;;;;;16.23;14.17;;;;;;;16.35;84.03;100947.69;5061778;28;20745;-73
2021/07/03 06:50:03;;;;;;;15.63;14.30;;;;;;;16.39;84.14;100951.94;5062380;28;20290;-73
2021/07/03 06:52:29;;;;;;;16.43;15.03;;;;;;;16.43;82.20;101022.06;5061564;28;20704;-73
2021/07/03 06:54:55;;;;;;;16.17;14.97;;;;;;;16.50;82.09;101042.03;5062168;28;20205;-73
2021/07/03 06:57:22;;;;;;;18.13;15.70;;;;;;;16.59;83.18;100988.13;5061736;28;20293;-73
2021/07/03 06:59:48;;;;;;;16.17;14.63;;;;;;;16.60;81.22;101074.22;5061863;28;20212;-73
2021/07/03 07:02:16;;;;;;;17.07;15.47;;;;;;;16.65;82.22;101017.78;5061116;28;20257;-72
2021/07/03 07:04:44;;;;;;;15.87;14.67;;;;;;;16.66;82.58;100997.56;5061595;28;20305;-73
2021/07/03 07:07:10;;;;;;;18.17;16.43;;;;;;;16.78;83.17;100968.13;5062893;28;20224;-73
2021/07/03 07:09:37;;;;;;;16.77;15.37;;;;;;;16.83;81.08;101042.69;5065272;28;20210;-73
2021/07/03 07:12:04;;;;;;;16.50;15.20;;;;;;;16.90;80.98;101064.41;5064782;28;20667;-73
2021/07/03 07:14:31;;;;;;;16.60;15.27;;;;;;;16.98;80.79;101070.25;5064946;28;20615;-73
2021/07/03 07:16:57;;;;;;;16.27;14.97;;;;;;;17.06;80.20;101106.94;5065173;28;20238;-73
2021/07/03 07:19:24;;;;;;;16.60;15.30;;;;;;;17.11;78.67;101144.56;5064346;28;20202;-73
2021/07/03 07:21:52;;;;;;;18.20;16.70;;;;;;;17.10;77.62;101207.94;5064969;28;20241;-73
2021/07/03 07:24:18;;;;;;;18.67;17.27;;;;;;;17.17;78.24;101169.88;5064971;28;20270;-73
2021/07/03 07:26:46;;;;;;;18.07;16.67;;;;;;;17.24;77.65;101210.94;5064698;28;20258;-74
2021/07/03 07:29:12;;;;;;;18.03;16.53;;;;;;;17.28;77.51;101209.94;5065273;28;20216;-72
2021/07/03 07:31:39;;;;;;;18.40;16.87;;;;;;;17.35;77.16;101216.72;5065379;28;20259;-74
2021/07/03 07:34:06;;;;;;;16.93;15.63;;;;;;;17.45;77.48;101196.16;5064514;28;20930;-74
2021/07/03 07:36:32;;;;;;;17.27;15.63;;;;;;;17.53;77.15;101183.53;5064664;28;20259;-76
2021/07/03 07:39:00;;;;;;;17.00;15.53;;;;;;;17.63;76.28;101223.69;5062237;28;20219;-74
2021/07/03 07:41:26;;;;;;;16.17;14.70;;;;;;;17.67;77.38;101183.03;5064535;28;20673;-73
2021/07/03 07:43:52;;;;;;;16.33;15.03;;;;;;;17.76;78.05;101151.03;5063624;28;20672;-73
2021/07/03 07:46:19;;;;;;;17.10;15.70;;;;;;;17.75;77.14;101170.41;5064180;28;21155;-72
2021/07/03 07:48:45;;;;;;;18.73;17.23;;;;;;;17.76;76.28;101201.19;5064669;28;20257;-72
2021/07/03 07:51:12;;;;;;;17.47;16.07;;;;;;;17.85;76.58;101208.81;5063520;28;20255;-73
2021/07/03 07:53:38;;;;;;;17.10;15.70;;;;;;;17.88;76.19;101218.41;5063573;28;20687;-72
2021/07/03 07:56:06;;;;;;;17.03;15.63;;;;;;;17.89;77.05;101199.00;5064374;28;20858;-76
2021/07/03 07:58:33;;;;;;;18.97;17.07;;;;;;;17.98;76.35;101189.88;5064460;28;20224;-72
2021/07/03 08:00:59;;;;;;;17.57;16.17;;;;;;;18.05;75.92;101225.69;5064013;28;20269;-72
2021/07/03 08:03:25;;;;;;;17.67;15.77;;;;;;;18.08;76.03;101222.94;5062585;28;20528;-72
2021/07/03 08:05:52;;;;;;;16.03;14.83;;;;;;;18.13;76.18;101218.34;5062837;28;20238;-72
2021/07/03 08:08:18;;;;;;;17.10;15.57;;;;;;;18.19;75.81;101206.69;5064647;28;20200;-72
2021/07/03 08:10:44;;;;;;;16.67;15.23;;;;;;;18.32;76.05;101202.66;5064662;28;20278;-72
2021/07/03 08:13:12;;;;;;;15.97;14.77;;;;;;;18.35;74.67;101243.94;5063105;28;20681;-72
2021/07/03 08:15:39;;;;;;;16.13;14.60;;;;;;;18.36;75.30;101246.53;5063552;28;20255;-72
2021/07/03 08:18:05;;;;;;;16.00;14.70;;;;;;;18.27;74.26;101297.09;5063949;28;20227;-72
2021/07/03 08:20:33;;;;;;;16.23;14.87;;;;;;;18.33;74.09;101272.22;5063938;28;20211;-72
2021/07/03 08:23:00;;;;;;;16.30;15.00;;;;;;;18.34;73.84;101279.25;5063948;28;20694;-72
2021/07/03 08:25:26;;;;;;;16.27;14.67;;;;;;;18.32;74.68;101258.16;5064417;28;20205;-72
2021/07/03 08:27:54;;;;;;;16.67;14.70;;;;;;;18.38;74.05;101265.00;5063835;28;20825;-72
2021/07/03 08:30:22;;;;;;;12.80;11.80;;;;;;;18.38;70.85;101354.88;5064318;28;20263;-72
2021/07/03 08:32:49;;;;;;;13.23;12.23;;;;;;;18.30;71.42;101392.16;5063550;28;20219;-72
2021/07/03 08:35:16;;;;;;;13.40;12.40;;;;;;;18.31;72.68;101311.06;5064146;28;21490;-72
2021/07/03 08:37:43;;;;;;;14.53;13.20;;;;;;;18.49;74.29;101230.19;5063666;28;20258;-72
2021/07/03 08:40:10;;;;;;;11.17;10.27;;;;;;;18.53;71.54;101335.81;5063539;28;20208;-72
2021/07/03 08:42:37;;;;;;;12.60;11.50;;;;;;;18.64;69.50;101425.28;5063552;28;20248;-72
2021/07/03 08:45:05;;;;;;;12.50;11.50;;;;;;;18.70;69.73;101429.50;5064190;28;20197;-72
2021/07/03 08:47:33;;;;;;;11.80;10.57;;;;;;;18.75;70.94;101374.63;5063771;28;20231;-72
2021/07/03 08:50:01;;;;;;;11.30;10.40;;;;;;;18.75;70.72;101375.50;5063707;28;20231;-72
2021/07/03 08:52:28;;;;;;;11.83;10.83;;;;;;;18.82;72.04;101310.88;5063554;28;20582;-71
2021/07/03 08:55:03;;;;;;;11.00;10.10;;;;;;;18.85;68.01;101437.75;5063817;28;20208;-72
2021/07/03 08:57:31;;;;;;;9.80;8.90;;;;;;;18.90;68.79;101436.72;5063684;28;20235;-72
2021/07/03 08:59:58;;;;;;;8.77;8.03;;;;;;;18.99;70.34;101349.06;5063664;28;20206;-72
2021/07/03 09:02:37;;;;;;;8.30;7.70;;;;;;;19.12;70.79;101315.00;5063357;28;20201;-72
2021/07/03 09:05:07;;;;;;;8.70;8.00;;;;;;;19.09;67.18;101471.28;5064638;28;20596;-73
2021/07/03 09:07:35;;;;;;;9.97;9.20;;;;;;;19.19;68.24;101449.69;5065158;28;20302;-74
2021/07/03 09:10:01;;;;;;;9.20;8.40;;;;;;;19.22;68.61;101425.75;5064998;28;20201;-74
2021/07/03 09:12:30;;;;;;;8.73;8.13;;;;;;;19.27;68.02;101414.13;5063846;28;20328;-74
2021/07/03 09:14:57;;;;;;;8.90;8.23;;;;;;;19.31;66.51;101472.19;5063286;28;20220;-74
2021/07/03 09:17:24;;;;;;;8.97;8.27;;;;;;;19.30;67.29;101469.59;5063258;28;20284;-73
2021/07/03 09:19:53;;;;;;;9.63;8.73;;;;;;;19.31;67.21;101451.00;5063380;28;20245;-73
2021/07/03 09:22:19;;;;;;;8.73;8.10;;;;;;;19.45;69.11;101381.63;5063097;28;20338;-73
2021/07/03 09:24:46;;;;;;;9.23;8.07;;;;;;;19.49;68.67;101385.84;5063007;28;20254;-74
2021/07/03 09:27:12;;;;;;;9.33;8.53;;;;;;;19.54;68.85;101341.50;5062991;28;20656;-74
2021/07/03 09:29:48;;;;;;;8.80;8.20;;;;;;;19.61;69.03;101358.84;5062717;28;20210;-73
2021/07/03 09:32:15;;;;;;;9.87;9.03;;;;;;;19.80;68.83;101389.91;5062889;28;20208;-73
2021/07/03 09:34:42;;;;;;;8.33;7.63;;;;;;;19.92;72.14;101251.59;5062912;28;20204;-73
2021/07/03 09:37:12;;;;;;;9.97;9.27;;;;;;;19.94;67.26;101397.25;5062702;28;20225;-74
2021/07/03 09:39:39;;;;;;;10.30;9.40;;;;;;;20.09;66.99;101420.47;5062568;28;20217;-73
2021/07/03 09:42:13;;;;;;;9.10;8.40;;;;;;;20.26;68.98;101384.38;5062570;28;20275;-73
2021/07/03 09:44:39;;;;;;;9.17;8.53;;;;;;;20.41;67.98;101376.59;5063153;28;20228;-73
2021/07/03 09:47:06;;;;;;;8.30;7.70;;;;;;;20.51;66.56;101419.50;5062984;28;20232;-73
2021/07/03 09:49:32;;;;;;;9.47;8.67;;;;;;;20.63;67.59;101379.22;5062912;28;20296;-73
2021/07/03 09:52:00;;;;;;;9.17;8.30;;;;;;;20.57;66.53;101440.47;5062735;28;20206;-73
2021/07/03 09:54:30;;;;;;;8.80;8.10;;;;;;;20.39;66.14;101446.56;5062580;28;20612;-72
2021/07/03 09:56:59;;;;;;;9.13;8.43;;;;;;;20.32;66.28;101447.78;5062335;28;20224;-74
2021/07/03 09:59:26;;;;;;;7.93;7.23;;;;;;;20.47;67.73;101378.13;5062398;28;20814;-73
2021/07/03 10:01:53;;;;;;;9.70;8.90;;;;;;;20.56;67.08;101371.56;5062547;28;20210;-73
2021/07/03 10:04:20;;;;;;;9.00;8.10;;;;;;;20.60;67.57;101330.72;5062560;28;20201;-73
2021/07/03 10:06:50;;;;;;;8.40;7.73;;;;;;;20.26;63.70;101531.09;5062628;28;20225;-76
2021/07/03 10:09:24;;;;;;;7.73;7.23;;;;;;;20.44;64.72;101489.69;5061678;28;20197;-74
2021/07/03 10:11:56;;;;;;;7.97;7.20;;;;;;;20.54;62.46;101549.34;5062233;28;20210;-74
2021/07/03 10:14:23;;;;;;;8.00;7.27;;;;;;;20.71;62.22;101584.94;5061988;28;20261;-74
2021/07/03 10:17:00;;;;;;;7.73;7.23;;;;;;;20.87;66.20;101370.16;5061950;28;20293;-74
2021/07/03 10:19:37;;;;;;;7.73;7.13;;;;;;;21.02;65.61;101403.94;5062771;28;20282;-74
2021/07/03 10:22:15;;;;;;;7.50;6.90;;;;;;;20.93;65.15;101439.75;5061878;28;20312;-74
2021/07/03 10:24:43;;;;;;;7.53;6.97;;;;;;;20.91;65.63;101428.34;5061957;28;20215;-74
2021/07/03 10:27:18;;;;;;;7.70;7.00;;;;;;;20.84;60.06;101615.34;5061706;28;20761;-74
2021/07/03 10:29:45;;;;;;;6.50;6.00;;;;;;;20.84;63.16;101527.75;5061858;28;20211;-73
2021/07/03 10:32:20;;;;;;;7.07;6.57;;;;;;;20.84;63.52;101498.56;5061448;28;20255;-72
2021/07/03 10:34:46;;;;;;;7.60;7.10;;;;;;;20.69;61.58;101565.56;5062619;28;20266;-73
2021/07/03 10:37:17;;;;;;;7.10;6.43;;;;;;;20.84;62.27;101527.75;5061980;28;20233;-73
2021/07/03 10:39:44;;;;;;;9.23;6.47;;;;;;;20.99;63.05;101491.69;5061772;28;20275;-73
2021/07/03 10:42:10;;;;;;;7.00;6.50;;;;;;;20.87;59.03;101656.78;5061703;28;20258;-73
2021/07/03 10:44:39;;;;;;;6.20;5.70;;;;;;;20.77;60.60;101588.22;5065658;28;20210;-72
2021/07/03 10:47:10;;;;;;;6.10;5.70;;;;;;;20.93;61.93;101539.75;5066281;28;20225;-73
2021/07/03 10:49:37;;;;;;;6.30;5.70;;;;;;;21.10;61.70;101533.69;5065792;28;20757;-73
2021/07/03 10:52:12;;;;;;;6.27;5.77;;;;;;;21.27;61.02;101572.72;5065979;28;20200;-73
2021/07/03 10:54:38;;;;;;;6.70;6.10;;;;;;;21.24;60.34;101568.44;5065643;28;20297;-73
2021/07/03 10:57:05;;;;;;;6.33;5.93;;;;;;;21.28;62.45;101479.72;5065752;28;20223;-73
2021/07/03 10:59:34;;;;;;;6.20;5.80;;;;;;;21.42;61.28;101495.00;5065592;28;20342;-73
2021/07/03 11:02:09;;;;;;;5.37;4.97;;;;;;;21.27;56.48;101740.94;5065451;28;20218;-73
2021/07/03 11:04:47;;;;;;;5.50;5.10;;;;;;;21.25;57.54;101732.16;5065333;28;20206;-73
2021/07/03 11:07:14;;;;;;;4.87;4.47;;;;;;;21.46;58.36;101684.38;5065362;28;20592;-73
2021/07/03 11:09:41;;;;;;;4.60;4.20;;;;;;;21.57;57.66;101677.63;5065487;28;20248;-73
2021/07/03 11:12:13;;;;;;;5.93;5.47;;;;;;;21.74;55.96;101676.88;5065443;28;20287;-73